Time;durP1;ratioP1;P1;durP2;ratioP2;P2;SDS_P1;SDS_P2;PMS_P1;PMS_P2;Temp;Humidity;BMP_temperature;BMP_pressure;BME280_temperature;BME280_humidity;BME280_pressure;Samples;Min_cycle;Max_cycle;Signal;HPM_P1;HPM_P2
2023/02/26 00:01:31;;;;;;;2.05;1.50;;;;;;;-2.84;98.67;100872.78;5098529;27;20050;-81
2023/02/26 00:04:01;;;;;;;6.13;1.67;;;;;;;-2.87;98.82;100872.63;5106793;27;20126;-77
2023/02/26 00:06:29;;;;;;;6.43;1.90;;;;;;;-2.90;99.05;100869.91;5112715;27;20044;-82
2023/02/26 00:08:56;;;;;;;3.38;1.73;;;;;;;-2.93;99.92;100868.09;5093436;27;20054;-79
2023/02/26 00:11:23;;;;;;;3.50;2.15;;;;;;;-2.90;100.00;100878.47;5117445;27;20121;-82
2023/02/26 00:13:50;;;;;;;8.40;2.33;;;;;;;-2.93;99.89;100880.00;5120532;27;20066;-81
2023/02/26 00:16:34;;;;;;;1.90;1.60;;;;;;;-2.90;100.00;100886.16;5092260;27;20051;-80
2023/02/26 00:19:05;;;;;;;3.10;1.55;;;;;;;-2.91;100.00;100893.78;5113689;27;20044;-78
2023/02/26 00:21:33;;;;;;;1.77;1.17;;;;;;;-2.90;100.00;100893.84;5124915;27;20161;-83
2023/02/26 00:24:01;;;;;;;10.07;1.98;;;;;;;-2.90;100.00;100891.28;5104024;27;20044;-79
2023/02/26 00:26:29;;;;;;;2.58;1.65;;;;;;;-2.83;100.00;100898.47;5112414;27;20130;-78
2023/02/26 00:28:57;;;;;;;1.88;1.63;;;;;;;-2.83;100.00;100900.16;5120951;27;20082;-79
2023/02/26 00:31:24;;;;;;;2.72;1.65;;;;;;;-2.87;100.00;100900.81;5093849;28;20052;-79
2023/02/26 00:33:52;;;;;;;2.13;1.73;;;;;;;-2.86;100.00;100900.88;5091703;28;20040;-79
2023/02/26 00:36:24;;;;;;;1.42;1.30;;;;;;;-2.80;100.00;100910.56;5106704;28;20550;-78
2023/02/26 00:39:46;;;;;;;2.97;0.88;;;;;;;-2.67;100.00;100909.50;5092058;28;20510;-78
2023/02/26 00:42:14;;;;;;;1.10;0.88;;;;;;;-2.46;100.00;100921.56;5089082;28;20504;-86
2023/02/26 00:44:44;;;;;;;3.70;1.25;;;;;;;-2.47;100.00;100922.38;5105636;28;20476;-80
2023/02/26 00:47:29;;;;;;;3.58;1.55;;;;;;;-2.59;100.00;100936.34;5103782;28;20190;-78
2023/02/26 00:54:09;;;;;;;1.50;1.13;;;;;;;-2.80;100.00;100942.97;5086151;28;20096;-81
2023/02/26 00:56:37;;;;;;;2.58;1.20;;;;;;;-2.85;100.00;100941.06;5103470;28;20089;-79
2023/02/26 00:59:03;;;;;;;4.13;1.10;;;;;;;-2.78;100.00;100943.94;5105519;28;20477;-79
2023/02/26 01:01:30;;;;;;;3.22;1.08;;;;;;;-2.69;100.00;100939.28;5067533;28;20478;-82
2023/02/26 01:03:57;;;;;;;4.97;1.00;;;;;;;-2.58;100.00;100945.81;5097611;28;20047;-78
2023/02/26 01:06:28;;;;;;;5.47;2.25;;;;;;;-2.47;100.00;100940.34;5089679;28;20044;-82
2023/02/26 01:09:05;;;;;;;1.02;0.95;;;;;;;-2.44;100.00;100940.47;5102211;28;20036;-79
2023/02/26 01:12:07;;;;;;;2.50;0.98;;;;;;;-2.50;100.00;100944.50;5106384;28;20560;-80
2023/02/26 01:14:35;;;;;;;1.38;1.05;;;;;;;-2.61;100.00;100943.06;5103070;28;20489;-79
2023/02/26 01:22:24;;;;;;;1.47;1.00;;;;;;;-2.71;100.00;100946.00;5089005;28;20046;-82
2023/02/26 01:25:03;;;;;;;4.00;3.03;;;;;;;-2.69;100.00;100949.53;5021533;27;20049;-78
2023/02/26 01:27:30;;;;;;;5.05;0.85;;;;;;;-2.53;100.00;100946.91;5119721;27;20069;-77
2023/02/26 01:29:57;;;;;;;1.27;0.95;;;;;;;-2.43;100.00;100942.22;5107066;28;20059;-78
2023/02/26 01:32:44;;;;;;;2.40;1.23;;;;;;;-2.35;100.00;100953.72;5113552;27;20051;-80
2023/02/26 01:35:32;;;;;;;0.93;0.47;;;;;;;-2.38;100.00;100951.91;5096985;28;20036;-79
2023/02/26 01:38:45;;;;;;;1.50;0.90;;;;;;;-2.36;100.00;100957.09;5097792;27;20047;-79
2023/02/26 01:41:33;;;;;;;2.45;0.70;;;;;;;-2.31;100.00;100970.16;5108438;27;20435;-78
2023/02/26 01:44:22;;;;;;;3.58;1.35;;;;;;;-2.28;100.00;100971.19;5106920;27;20043;-76
2023/02/26 01:47:17;;;;;;;3.60;0.73;;;;;;;-2.22;100.00;100976.59;5108918;27;20117;-78
2023/02/26 01:49:44;;;;;;;5.80;0.82;;;;;;;-2.18;100.00;100972.50;5104902;27;20053;-79
2023/02/26 01:52:50;;;;;;;6.43;2.38;;;;;;;-2.14;100.00;100976.94;5097966;28;20063;-81
2023/02/26 01:55:23;;;;;;;1.88;0.95;;;;;;;-2.03;100.00;100980.91;5076121;28;20104;-80
2023/02/26 01:57:56;;;;;;;7.50;1.13;;;;;;;-1.99;100.00;100987.06;5099336;28;20108;-80
2023/02/26 02:00:22;;;;;;;0.77;0.52;;;;;;;-1.97;100.00;100985.44;5103122;28;20063;-79
2023/02/26 02:02:50;;;;;;;8.57;3.05;;;;;;;-1.94;100.00;100989.84;5103429;27;20036;-78
2023/02/26 02:05:31;;;;;;;3.40;0.60;;;;;;;-1.90;100.00;100987.50;5094254;28;20047;-83
2023/02/26 02:07:59;;;;;;;3.00;0.88;;;;;;;-1.83;100.00;101001.50;5090760;27;20040;-81
2023/02/26 02:10:28;;;;;;;1.52;0.90;;;;;;;-1.76;100.00;101007.78;5102634;28;20051;-80
2023/02/26 02:13:07;;;;;;;1.33;0.70;;;;;;;-1.73;100.00;101003.69;5090688;28;20426;-81
2023/02/26 02:15:46;;;;;;;1.70;0.82;;;;;;;-1.67;100.00;101016.81;5104776;27;20078;-82
2023/02/26 02:18:33;;;;;;;5.63;0.93;;;;;;;-1.66;100.00;101020.25;5106438;28;20131;-82
2023/02/26 02:21:28;;;;;;;1.55;0.73;;;;;;;-1.62;100.00;101021.28;5110269;27;20070;-78
2023/02/26 02:24:20;;;;;;;3.53;1.13;;;;;;;-1.61;100.00;101026.47;5084648;28;20043;-77
2023/02/26 02:27:17;;;;;;;3.45;1.00;;;;;;;-1.63;100.00;101028.13;5110083;27;20043;-80
2023/02/26 02:30:28;;;;;;;5.22;0.88;;;;;;;-1.63;100.00;101027.22;5088485;28;20044;-77
2023/02/26 02:33:15;;;;;;;0.40;0.40;;;;;;;-1.60;100.00;101037.63;5101196;28;20036;-78
2023/02/26 02:35:54;;;;;;;1.45;0.70;;;;;;;-1.59;100.00;101032.59;5091958;27;20105;-75
2023/02/26 02:38:28;;;;;;;3.60;1.42;;;;;;;-1.58;100.00;101044.59;5102033;28;20043;-77
2023/02/26 02:41:13;;;;;;;3.35;1.00;;;;;;;-1.57;100.00;101042.91;5110879;28;20119;-76
2023/02/26 02:43:43;;;;;;;1.80;0.90;;;;;;;-1.59;99.88;101053.13;5106851;27;20031;-80
2023/02/26 02:46:26;;;;;;;2.53;1.13;;;;;;;-1.60;100.00;101050.44;5107556;28;20090;-81
2023/02/26 02:49:04;;;;;;;3.38;0.93;;;;;;;-1.61;100.00;101046.16;5103257;28;20048;-78
2023/02/26 02:51:39;;;;;;;0.93;0.68;;;;;;;-1.57;100.00;101056.63;5110184;28;20035;-79
2023/02/26 02:54:16;;;;;;;3.65;1.25;;;;;;;-1.57;100.00;101050.63;5105212;28;20073;-77
2023/02/26 02:56:51;;;;;;;1.10;0.50;;;;;;;-1.63;100.00;101055.47;5103470;27;20470;-78
2023/02/26 02:59:30;;;;;;;7.07;1.00;;;;;;;-1.68;100.00;101058.69;5108419;28;20044;-78
2023/02/26 03:02:19;;;;;;;1.90;1.05;;;;;;;-1.72;100.00;101061.03;5109204;28;20055;-80
2023/02/26 03:04:47;;;;;;;1.63;0.73;;;;;;;-1.77;100.00;101060.81;5063897;28;20130;-78
2023/02/26 03:07:13;;;;;;;2.28;1.02;;;;;;;-1.83;100.00;101066.53;5113904;27;20047;-78
2023/02/26 03:09:41;;;;;;;1.85;0.75;;;;;;;-1.85;100.00;101069.84;5106675;28;20206;-78
2023/02/26 03:12:07;;;;;;;1.70;0.60;;;;;;;-1.90;100.00;101064.47;5099755;28;20043;-79
2023/02/26 03:14:34;;;;;;;1.98;0.77;;;;;;;-1.89;100.00;101075.63;5095490;28;20490;-79
2023/02/26 03:17:33;;;;;;;1.38;0.93;;;;;;;-1.93;100.00;101076.28;5106859;27;20817;-83
2023/02/26 03:20:27;;;;;;;1.45;0.70;;;;;;;-2.00;100.00;101082.81;5092341;28;20036;-76
2023/02/26 03:23:21;;;;;;;5.95;1.20;;;;;;;-1.96;100.00;101087.28;5097332;28;20047;-75
2023/02/26 03:26:04;;;;;;;1.03;0.70;;;;;;;-1.90;100.00;101086.72;5099099;28;20036;-77
2023/02/26 03:29:02;;;;;;;2.28;0.80;;;;;;;-1.89;100.00;101098.72;5099993;28;20469;-78
2023/02/26 03:31:44;;;;;;;4.63;0.88;;;;;;;-1.85;100.00;101095.50;5090039;28;20055;-78
2023/02/26 03:35:07;;;;;;;1.02;0.88;;;;;;;-1.81;100.00;101101.66;5104161;28;20449;-78
2023/02/26 03:38:01;;;;;;;3.90;0.73;;;;;;;-1.79;100.00;101103.50;5086601;28;20043;-77
2023/02/26 03:41:05;;;;;;;3.67;1.20;;;;;;;-1.78;100.00;101107.81;5091207;28;20126;-78
2023/02/26 03:44:18;;;;;;;3.78;0.80;;;;;;;-1.77;100.00;101112.16;5108546;28;20046;-78
2023/02/26 03:46:57;;;;;;;3.38;0.90;;;;;;;-1.74;100.00;101114.84;5082035;28;20040;-79
2023/02/26 03:49:34;;;;;;;4.35;1.10;;;;;;;-1.71;100.00;101115.03;5070827;28;20105;-77
2023/02/26 03:52:03;;;;;;;1.55;0.93;;;;;;;-1.68;100.00;101122.88;5080239;28;20132;-81
2023/02/26 03:54:45;;;;;;;1.65;1.35;;;;;;;-1.65;100.00;101128.97;5071666;28;20047;-78
2023/02/26 03:57:12;;;;;;;1.90;1.42;;;;;;;-1.63;100.00;101132.47;5106167;28;20444;-79
2023/02/26 03:59:39;;;;;;;1.55;0.85;;;;;;;-1.59;100.00;101137.84;5109782;28;20481;-79
2023/02/26 04:02:18;;;;;;;3.38;1.00;;;;;;;-1.55;100.00;101138.84;5081908;28;20122;-85
2023/02/26 04:04:54;;;;;;;9.05;1.08;;;;;;;-1.51;100.00;101138.22;5107752;28;20046;-79
2023/02/26 04:07:21;;;;;;;4.72;1.35;;;;;;;-1.48;100.00;101142.63;5107710;28;20695;-80
2023/02/26 04:09:50;;;;;;;1.08;0.85;;;;;;;-1.50;100.00;101151.13;5093163;28;20035;-80
2023/02/26 04:12:23;;;;;;;1.25;0.60;;;;;;;-1.51;100.00;101151.91;5105652;28;20042;-81
2023/02/26 04:14:50;;;;;;;5.20;0.88;;;;;;;-1.48;100.00;101155.44;5109928;28;20048;-77
2023/02/26 04:17:18;;;;;;;4.63;1.10;;;;;;;-1.50;100.00;101156.25;5103028;28;20036;-82
2023/02/26 04:19:44;;;;;;;1.75;1.20;;;;;;;-1.49;100.00;101159.69;5108039;28;20118;-78
2023/02/26 04:22:11;;;;;;;1.55;0.90;;;;;;;-1.48;100.00;101160.59;5104152;28;20042;-76
2023/02/26 04:24:37;;;;;;;1.40;0.77;;;;;;;-1.46;100.00;101165.00;5090399;28;20104;-82
2023/02/26 04:27:04;;;;;;;0.80;0.77;;;;;;;-1.46;100.00;101172.69;5121703;28;20039;-79
2023/02/26 04:29:31;;;;;;;1.35;0.60;;;;;;;-1.47;100.00;101170.03;5081862;28;20392;-79
2023/02/26 04:31:57;;;;;;;2.58;1.23;;;;;;;-1.51;100.00;101171.59;5079257;28;20062;-77
2023/02/26 04:34:24;;;;;;;4.50;0.82;;;;;;;-1.48;100.00;101176.00;5087845;28;20041;-80
2023/02/26 04:36:50;;;;;;;1.90;0.70;;;;;;;-1.46;99.70;101187.19;5107462;28;20063;-78
2023/02/26 04:39:18;;;;;;;2.58;0.60;;;;;;;-1.46;99.92;101187.19;5097175;28;20043;-79
2023/02/26 04:41:45;;;;;;;1.55;0.85;;;;;;;-1.51;100.00;101187.88;5096370;28;20044;-81
2023/02/26 04:44:11;;;;;;;4.93;0.90;;;;;;;-1.49;99.80;101187.94;5095014;28;20040;-77
2023/02/26 04:46:38;;;;;;;2.13;0.95;;;;;;;-1.48;99.28;101191.41;5092591;27;20046;-77
2023/02/26 04:49:04;;;;;;;1.55;1.27;;;;;;;-1.47;99.11;101199.16;5085647;28;20134;-80
2023/02/26 04:51:31;;;;;;;2.13;0.85;;;;;;;-1.47;99.10;101214.56;5081291;27;20046;-78
2023/02/26 04:53:57;;;;;;;5.13;2.17;;;;;;;-1.46;99.41;101210.31;5108553;27;20039;-78
2023/02/26 04:56:24;;;;;;;0.85;0.82;;;;;;;-1.43;98.75;101219.06;5089528;28;20119;-77
2023/02/26 04:58:50;;;;;;;1.88;0.60;;;;;;;-1.42;98.54;101212.22;5089507;27;20051;-77
2023/02/26 05:01:19;;;;;;;4.70;0.70;;;;;;;-1.44;98.02;101213.84;5080876;28;20474;-85
2023/02/26 05:03:45;;;;;;;1.02;0.60;;;;;;;-1.43;98.20;101219.06;5090526;28;20035;-79
2023/02/26 05:06:15;;;;;;;2.45;0.57;;;;;;;-1.43;97.91;101224.19;5071989;28;20039;-79
2023/02/26 05:08:41;;;;;;;1.05;0.55;;;;;;;-1.39;97.46;101227.78;5085649;28;20492;-78
2023/02/26 05:11:13;;;;;;;1.52;0.70;;;;;;;-1.39;96.64;101243.22;5094276;27;20051;-79
2023/02/26 05:13:40;;;;;;;2.03;0.88;;;;;;;-1.40;96.62;101237.16;5092540;28;20490;-78
2023/02/26 05:16:08;;;;;;;2.28;0.82;;;;;;;-1.40;96.45;101233.72;5079669;27;20421;-77
2023/02/26 05:18:36;;;;;;;2.28;0.65;;;;;;;-1.40;96.57;101234.59;5091341;28;20050;-78
2023/02/26 05:21:04;;;;;;;0.85;0.57;;;;;;;-1.41;96.09;101243.13;5093871;28;20595;-77
2023/02/26 05:23:31;;;;;;;0.40;0.40;;;;;;;-1.46;96.04;101242.03;5100690;28;20042;-77
2023/02/26 05:25:58;;;;;;;3.42;0.80;;;;;;;-1.60;95.45;101246.47;5092850;27;20031;-79
2023/02/26 05:28:26;;;;;;;1.05;0.45;;;;;;;-1.79;95.89;101249.78;5072990;27;21500;-77
2023/02/26 05:30:53;;;;;;;2.72;0.55;;;;;;;-2.01;96.55;101263.19;5098538;27;20157;-76
2023/02/26 05:33:21;;;;;;;1.52;0.47;;;;;;;-2.21;97.78;101270.72;5112097;27;20048;-79
2023/02/26 05:35:49;;;;;;;0.43;0.40;;;;;;;-2.35;98.57;101274.25;5118999;27;20477;-79
2023/02/26 05:38:16;;;;;;;2.25;1.25;;;;;;;-2.53;98.68;101274.13;5095014;27;20383;-79
2023/02/26 05:40:42;;;;;;;2.42;0.88;;;;;;;-2.67;99.62;101273.41;5096270;27;20039;-77
2023/02/26 05:43:10;;;;;;;0.95;0.40;;;;;;;-2.74;99.82;101289.22;5093617;27;20057;-80
2023/02/26 05:45:37;;;;;;;1.83;0.80;;;;;;;-2.83;100.00;101285.38;5096277;28;20039;-79
2023/02/26 05:48:03;;;;;;;2.30;0.50;;;;;;;-2.89;100.00;101290.13;5107378;28;20043;-78
2023/02/26 05:50:30;;;;;;;0.90;0.30;;;;;;;-2.96;100.00;101295.69;5115493;27;20114;-78
2023/02/26 05:52:57;;;;;;;1.35;0.60;;;;;;;-3.08;100.00;101293.34;5112059;27;20135;-78
2023/02/26 05:55:24;;;;;;;0.70;0.70;;;;;;;-3.18;100.00;101303.84;5112146;27;20035;-78
2023/02/26 05:57:51;;;;;;;4.32;2.15;;;;;;;-3.28;100.00;101299.91;5079589;27;20485;-79
2023/02/26 06:00:18;;;;;;;0.52;0.40;;;;;;;-3.28;100.00;101302.44;5116568;27;20473;-77
2023/02/26 06:02:45;;;;;;;2.33;0.80;;;;;;;-3.32;100.00;101309.06;5122606;27;20031;-78
2023/02/26 06:05:11;;;;;;;4.57;0.82;;;;;;;-3.37;100.00;101309.59;5095369;27;20036;-80
2023/02/26 06:07:38;;;;;;;4.93;0.65;;;;;;;-3.44;100.00;101313.50;5110938;28;20450;-77
2023/02/26 06:10:07;;;;;;;1.98;0.50;;;;;;;-3.46;100.00;101314.19;5106084;27;20045;-81
2023/02/26 06:12:34;;;;;;;6.88;1.10;;;;;;;-3.52;100.00;101323.28;5102725;27;20055;-85
2023/02/26 06:15:01;;;;;;;4.72;1.00;;;;;;;-3.52;100.00;101328.41;5109783;27;20041;-77
2023/02/26 06:17:27;;;;;;;2.47;0.60;;;;;;;-3.50;100.00;101333.59;5115045;27;20043;-78
2023/02/26 06:19:54;;;;;;;2.22;0.60;;;;;;;-3.45;100.00;101344.13;5101023;27;20047;-82
2023/02/26 06:22:21;;;;;;;2.58;0.45;;;;;;;-3.46;100.00;101338.09;5088029;27;20031;-82
2023/02/26 06:24:47;;;;;;;4.85;0.68;;;;;;;-3.46;100.00;101348.34;5108694;27;20028;-79
2023/02/26 06:27:14;;;;;;;1.73;0.60;;;;;;;-3.46;100.00;101347.47;5116154;27;20078;-80
2023/02/26 06:29:40;;;;;;;2.58;0.40;;;;;;;-3.46;100.00;101344.91;5110880;27;20489;-81
2023/02/26 06:32:07;;;;;;;0.50;0.50;;;;;;;-3.49;100.00;101348.16;5091522;27;20048;-79
2023/02/26 06:34:33;;;;;;;5.78;0.73;;;;;;;-3.49;100.00;101363.53;5104736;27;20035;-84
2023/02/26 06:37:00;;;;;;;2.88;0.68;;;;;;;-3.46;100.00;101361.13;5093736;28;20054;-77
2023/02/26 06:39:28;;;;;;;2.10;0.45;;;;;;;-3.43;100.00;101363.88;5107990;27;20042;-78
2023/02/26 06:41:55;;;;;;;6.13;0.60;;;;;;;-3.47;100.00;101368.75;5108541;27;20047;-79
2023/02/26 06:44:21;;;;;;;7.28;1.00;;;;;;;-3.49;100.00;101369.53;5109581;27;20035;-79
2023/02/26 06:46:48;;;;;;;0.68;0.68;;;;;;;-3.50;100.00;101369.44;5103119;27;20046;-76
2023/02/26 06:49:14;;;;;;;1.85;0.45;;;;;;;-3.49;100.00;101372.06;5095013;27;20071;-76
2023/02/26 06:51:41;;;;;;;3.10;1.05;;;;;;;-3.53;100.00;101382.06;5105049;27;20039;-79
2023/02/26 06:54:07;;;;;;;4.97;1.00;;;;;;;-3.53;100.00;101388.06;5109582;27;20031;-75
2023/02/26 06:56:34;;;;;;;2.63;0.40;;;;;;;-3.50;100.00;101395.03;5088180;27;20071;-78
2023/02/26 06:59:01;;;;;;;3.15;1.00;;;;;;;-3.46;100.00;101393.53;5107509;28;20086;-81
2023/02/26 07:01:28;;;;;;;2.45;0.50;;;;;;;-3.46;100.00;101399.53;5102992;28;20036;-79
2023/02/26 07:03:54;;;;;;;1.02;0.50;;;;;;;-3.39;100.00;101413.59;5086089;27;20040;-79
2023/02/26 07:06:21;;;;;;;1.73;0.43;;;;;;;-3.40;100.00;101419.50;5092899;27;20082;-80
2023/02/26 07:08:47;;;;;;;0.77;0.38;;;;;;;-3.39;100.00;101413.59;5101905;28;20035;-80
2023/02/26 07:11:13;;;;;;;0.88;0.88;;;;;;;-3.39;100.00;101418.69;5107967;27;20039;-78
2023/02/26 07:13:40;;;;;;;2.55;0.57;;;;;;;-3.36;100.00;101432.56;5116864;27;20039;-81
2023/02/26 07:16:07;;;;;;;2.28;0.90;;;;;;;-3.29;100.00;101441.50;5121107;27;20047;-78
2023/02/26 07:18:37;;;;;;;3.10;0.38;;;;;;;-3.29;100.00;101438.94;5098540;27;20427;-81
2023/02/26 07:21:04;;;;;;;1.75;0.80;;;;;;;-3.27;100.00;101441.59;5113334;27;20043;-76
2023/02/26 07:23:31;;;;;;;6.75;1.27;;;;;;;-3.21;100.00;101445.41;5102864;28;20092;-81
2023/02/26 07:25:58;;;;;;;3.95;1.02;;;;;;;-2.87;100.00;101452.53;5111287;28;20072;-77
2023/02/26 07:28:28;;;;;;;1.10;0.73;;;;;;;-2.07;100.00;101448.47;5107140;27;20056;-78
2023/02/26 07:30:55;;;;;;;4.05;0.60;;;;;;;-1.08;98.50;101445.09;5096355;28;20095;-83
2023/02/26 07:33:22;;;;;;;0.55;0.52;;;;;;;-0.11;93.04;101446.41;5123624;27;20093;-78
2023/02/26 07:35:49;;;;;;;0.50;0.50;;;;;;;0.12;88.18;101465.53;5094563;28;20051;-78
2023/02/26 07:38:15;;;;;;;2.13;0.63;;;;;;;-0.17;88.14;101468.47;5104877;28;20051;-79
2023/02/26 07:40:42;;;;;;;3.78;0.77;;;;;;;-0.39;89.19;101463.09;5087699;28;20040;-79
2023/02/26 07:43:08;;;;;;;0.93;0.75;;;;;;;-0.45;89.52;101468.81;5109934;28;20053;-78
2023/02/26 07:45:35;;;;;;;5.97;1.00;;;;;;;-0.63;89.92;101471.38;5130411;27;20035;-80
2023/02/26 07:48:01;;;;;;;5.97;1.35;;;;;;;-0.86;90.26;101480.47;5105467;28;20201;-83
2023/02/26 07:50:28;;;;;;;2.63;1.17;;;;;;;-1.02;91.22;101483.97;5091836;28;20050;-85
2023/02/26 07:52:55;;;;;;;4.68;1.10;;;;;;;-0.86;91.20;101486.53;5098123;28;20118;-79
2023/02/26 07:55:22;;;;;;;1.45;0.70;;;;;;;-0.87;90.70;101489.03;5110690;28;20043;-78
2023/02/26 07:57:49;;;;;;;3.63;0.55;;;;;;;-1.04;90.68;101501.00;5087600;28;20789;-78
2023/02/26 08:00:16;;;;;;;2.55;0.57;;;;;;;-1.21;91.40;101505.28;5107363;28;20528;-81
2023/02/26 08:02:43;;;;;;;2.05;0.82;;;;;;;-1.35;91.91;101513.09;5126300;27;20138;-79
2023/02/26 08:05:12;;;;;;;1.05;0.52;;;;;;;-1.49;92.87;101508.91;5107650;28;20047;-80
2023/02/26 08:07:38;;;;;;;3.15;1.95;;;;;;;-1.61;93.13;101513.41;5090833;28;20493;-81
2023/02/26 08:10:06;;;;;;;2.13;0.63;;;;;;;-1.68;92.66;101518.19;5106570;28;20043;-77
2023/02/26 08:12:41;;;;;;;1.00;0.60;;;;;;;-1.69;92.84;101519.00;5097172;28;20455;-78
2023/02/26 08:15:08;;;;;;;3.70;0.80;;;;;;;-1.67;92.46;101516.50;5105340;28;20040;-78
2023/02/26 08:17:35;;;;;;;2.40;0.93;;;;;;;-1.69;92.56;101523.25;5101327;28;20047;-78
2023/02/26 08:20:01;;;;;;;3.35;1.00;;;;;;;-1.69;92.69;101525.81;5117180;27;20540;-82
2023/02/26 08:22:30;;;;;;;4.70;1.98;;;;;;;-1.67;93.05;101527.66;5104062;27;20035;-82
2023/02/26 08:24:56;;;;;;;3.38;0.32;;;;;;;-1.63;91.73;101523.59;5110682;27;20043;-80
2023/02/26 08:27:22;;;;;;;4.43;1.23;;;;;;;-1.55;90.76;101529.13;5104990;27;20133;-76
2023/02/26 08:29:49;;;;;;;4.13;0.82;;;;;;;-1.51;90.87;101525.94;5112199;27;20063;-81
2023/02/26 08:32:18;;;;;;;3.78;0.55;;;;;;;-1.46;90.06;101545.06;5108272;27;20365;-84
2023/02/26 08:34:48;;;;;;;2.60;0.88;;;;;;;-1.44;89.58;101540.88;5106213;28;20108;-78
2023/02/26 08:37:15;;;;;;;1.55;0.50;;;;;;;-1.39;88.92;101548.84;5105555;27;20438;-77
2023/02/26 08:39:41;;;;;;;4.07;1.20;;;;;;;-1.35;88.63;101549.06;5116776;27;20051;-82
2023/02/26 08:42:10;;;;;;;1.13;0.60;;;;;;;-1.32;88.27;101556.06;5102516;27;20035;-79
2023/02/26 08:44:36;;;;;;;6.03;1.10;;;;;;;-1.24;86.96;101557.38;5096586;27;20067;-78
2023/02/26 08:47:03;;;;;;;3.95;0.90;;;;;;;-1.11;85.82;101563.16;5108135;27;20129;-78
2023/02/26 08:49:30;;;;;;;4.97;0.73;;;;;;;-1.08;85.68;101563.28;5113050;27;20047;-80
2023/02/26 08:51:56;;;;;;;9.90;5.10;;;;;;;-0.96;84.41;101565.66;5103651;27;20038;-83
2023/02/26 08:54:23;;;;;;;6.55;3.00;;;;;;;-0.94;82.89;101564.03;5088298;27;20184;-79
2023/02/26 08:56:54;;;;;;;1.75;1.50;;;;;;;-0.92;83.34;101567.59;5089172;27;20426;-77
2023/02/26 08:59:21;;;;;;;1.45;1.20;;;;;;;-0.90;83.57;101579.72;5111481;27;20553;-77
2023/02/26 09:01:51;;;;;;;2.65;1.00;;;;;;;-0.94;83.50;101585.50;5111915;27;20429;-79
2023/02/26 09:04:17;;;;;;;3.42;0.85;;;;;;;-0.93;84.70;101592.38;5107646;27;20503;-79
2023/02/26 09:06:44;;;;;;;3.42;0.82;;;;;;;-0.92;84.92;101589.03;5112088;27;20042;-82
2023/02/26 09:09:10;;;;;;;1.98;1.48;;;;;;;-0.85;84.36;101600.50;5121522;27;20044;-78
2023/02/26 09:11:37;;;;;;;1.45;0.57;;;;;;;-0.82;84.24;101599.78;5105195;27;20412;-78
2023/02/26 09:14:06;;;;;;;1.25;0.70;;;;;;;-0.74;83.05;101612.25;5104131;27;20051;-77
2023/02/26 09:16:35;;;;;;;1.02;0.70;;;;;;;-0.69;82.68;101608.22;5113204;27;20036;-81
2023/02/26 09:19:03;;;;;;;3.45;1.70;;;;;;;-0.66;83.04;101599.78;5120427;27;20122;-80
2023/02/26 09:21:30;;;;;;;0.52;0.32;;;;;;;-0.62;82.57;101598.28;5103517;27;20035;-78
2023/02/26 09:23:57;;;;;;;1.02;0.98;;;;;;;-0.63;81.30;101601.63;5106808;27;20044;-81
2023/02/26 09:26:23;;;;;;;5.57;1.70;;;;;;;-0.58;81.39;101602.75;5109961;27;20044;-79
2023/02/26 09:28:50;;;;;;;1.15;0.95;;;;;;;-0.52;81.11;101606.53;5103129;27;20050;-81
2023/02/26 09:31:16;;;;;;;2.28;0.88;;;;;;;-0.46;79.93;101603.38;5119276;27;20039;-82
2023/02/26 09:33:43;;;;;;;0.73;0.73;;;;;;;-0.46;80.68;101612.78;5123638;27;20603;-78
2023/02/26 09:36:09;;;;;;;3.67;1.60;;;;;;;-0.38;78.68;101606.34;5099069;27;20534;-78
2023/02/26 09:38:36;;;;;;;1.27;0.50;;;;;;;-0.36;79.87;101607.31;5081404;27;20851;-79
2023/02/26 09:41:22;;;;;;;1.25;0.98;;;;;;;-0.31;79.10;101612.69;5083951;27;20038;-82
2023/02/26 09:44:19;;;;;;;0.98;0.17;;;;;;;-0.28;78.59;101621.44;5100954;27;20485;-80
2023/02/26 09:47:06;;;;;;;2.38;0.30;;;;;;;-0.24;78.17;101614.78;5092442;27;20039;-80
2023/02/26 09:50:42;;;;;;;0.82;0.30;;;;;;;-0.07;73.77;101613.91;5116098;27;20114;-81
2023/02/26 09:53:33;;;;;;;4.38;0.50;;;;;;;0.04;74.30;101616.13;5113703;27;20058;-80
2023/02/26 09:56:05;;;;;;;0.30;0.30;;;;;;;0.01;74.17;101619.44;5087803;27;20042;-77
2023/02/26 09:58:39;;;;;;;3.45;0.30;;;;;;;0.05;70.53;101623.06;5090166;27;20053;-80
2023/02/26 10:01:31;;;;;;;2.80;0.60;;;;;;;0.03;71.36;101622.09;5116725;27;20053;-85
2023/02/26 10:04:15;;;;;;;2.20;0.80;;;;;;;0.03;72.09;101620.41;5088692;27;20043;-77
2023/02/26 10:07:09;;;;;;;4.57;0.90;;;;;;;0.06;73.23;101636.00;5098629;27;20473;-81
2023/02/26 10:10:02;;;;;;;2.08;0.93;;;;;;;0.12;70.69;101640.59;5084536;28;20674;-79
2023/02/26 10:12:35;;;;;;;1.02;0.75;;;;;;;0.21;70.46;101645.28;5118540;27;20066;-79
2023/02/26 10:15:25;;;;;;;2.80;0.60;;;;;;;0.26;69.93;101638.69;5119090;27;20039;-79
2023/02/26 10:18:00;;;;;;;1.05;0.40;;;;;;;0.25;68.85;101640.38;5104906;27;20035;-78
2023/02/26 10:20:38;;;;;;;2.08;0.50;;;;;;;0.33;68.92;101651.06;5086231;27;20038;-77
2023/02/26 10:23:39;;;;;;;1.17;0.73;;;;;;;0.30;70.50;101651.78;5104769;27;20063;-79
2023/02/26 10:26:14;;;;;;;1.05;0.98;;;;;;;0.33;68.02;101661.38;5110298;27;20170;-83
2023/02/26 10:28:54;;;;;;;2.22;0.50;;;;;;;0.41;67.67;101664.31;5099053;27;20048;-78
2023/02/26 10:32:04;;;;;;;0.40;0.38;;;;;;;0.48;67.25;101659.53;5080896;28;20043;-81
2023/02/26 10:34:58;;;;;;;1.73;0.80;;;;;;;0.49;67.79;101656.13;5055738;28;20059;-78
2023/02/26 10:37:58;;;;;;;3.33;0.90;;;;;;;0.52;68.18;101662.25;5088503;28;20509;-80
2023/02/26 10:40:40;;;;;;;1.25;0.57;;;;;;;0.59;66.85;101657.47;5084006;28;20057;-80
2023/02/26 10:43:31;;;;;;;0.30;0.30;;;;;;;0.78;65.62;101664.41;5077998;28;20063;-81
2023/02/26 10:46:22;;;;;;;1.27;0.25;;;;;;;1.01;64.50;101674.91;5082313;28;20046;-82
2023/02/26 10:49:07;;;;;;;1.58;0.30;;;;;;;1.03;63.34;101668.13;5082184;28;20546;-80
2023/02/26 10:51:38;;;;;;;1.55;0.32;;;;;;;0.95;63.98;101666.88;5077453;27;20039;-79
2023/02/26 10:54:27;;;;;;;2.13;0.28;;;;;;;1.04;63.08;101664.72;5092753;27;20159;-82
2023/02/26 10:56:54;;;;;;;0.90;0.45;;;;;;;1.10;63.16;101662.41;5088637;28;20058;-76
2023/02/26 10:59:21;;;;;;;0.85;0.40;;;;;;;1.17;61.26;101666.16;5073693;28;20042;-83
2023/02/26 11:01:51;;;;;;;0.45;0.35;;;;;;;1.13;61.47;101670.31;5074437;28;20093;-83
2023/02/26 11:04:23;;;;;;;0.73;0.70;;;;;;;1.10;62.01;101671.88;5060759;28;20144;-82
2023/02/26 11:06:57;;;;;;;0.82;0.50;;;;;;;1.25;60.53;101674.25;5074497;27;20135;-83
2023/02/26 11:09:41;;;;;;;0.50;0.30;;;;;;;1.48;60.00;101665.84;5076443;28;20032;-80
2023/02/26 11:12:14;;;;;;;1.75;0.30;;;;;;;1.62;58.66;101678.50;5099069;27;20047;-79
2023/02/26 11:14:43;;;;;;;1.90;0.30;;;;;;;1.69;57.12;101682.22;5066006;28;20082;-77
2023/02/26 11:17:22;;;;;;;1.85;0.25;;;;;;;1.72;56.52;101679.75;5065603;28;20048;-78
2023/02/26 11:20:04;;;;;;;0.38;0.20;;;;;;;1.64;55.83;101684.59;5065754;28;20110;-80
2023/02/26 11:22:34;;;;;;;1.88;0.30;;;;;;;1.58;56.44;101685.22;5064945;28;20043;-78
2023/02/26 11:25:03;;;;;;;1.67;0.28;;;;;;;1.63;57.98;101678.56;5078667;28;20142;-80
2023/02/26 11:27:38;;;;;;;1.55;0.20;;;;;;;1.80;56.71;101684.47;5094209;28;20110;-79
2023/02/26 11:30:17;;;;;;;0.32;0.10;;;;;;;2.03;52.52;101686.25;5093974;28;20059;-82
2023/02/26 11:32:45;;;;;;;0.28;0.15;;;;;;;2.07;53.32;101680.41;5110226;27;20035;-75
2023/02/26 11:35:17;;;;;;;0.65;0.10;;;;;;;2.06;53.89;101678.63;5093474;28;20051;-76
2023/02/26 11:37:54;;;;;;;0.38;0.38;;;;;;;2.18;52.81;101681.75;5095452;28;20046;-76
2023/02/26 11:40:39;;;;;;;0.47;0.28;;;;;;;2.33;51.43;101681.50;5093186;28;20055;-82
2023/02/26 11:43:11;;;;;;;0.45;0.40;;;;;;;2.44;51.36;101687.13;5077601;28;20059;-85
2023/02/26 11:45:43;;;;;;;0.93;0.30;;;;;;;2.52;49.86;101683.13;5065206;28;20513;-82
2023/02/26 11:48:19;;;;;;;4.05;0.98;;;;;;;2.47;50.10;101684.66;5098462;28;20039;-78
2023/02/26 11:50:49;;;;;;;0.28;0.20;;;;;;;2.50;50.68;101692.53;5111607;28;20123;-81
2023/02/26 11:53:32;;;;;;;1.73;1.17;;;;;;;2.60;50.71;101686.03;5097210;28;20048;-80
2023/02/26 11:56:03;;;;;;;1.75;0.55;;;;;;;2.73;51.46;101693.44;5081806;28;20386;-76
2023/02/26 11:58:38;;;;;;;1.48;0.43;;;;;;;2.87;50.54;101690.53;5089664;28;20068;-79
2023/02/26 12:01:12;;;;;;;0.38;0.30;;;;;;;2.94;50.04;101687.38;5084568;28;20047;-80